createdAt,value
2023-05-01T00:00:23.000Z,8402.0
2023-05-01T00:01:24.000Z,8389.0
2023-05-01T00:02:23.000Z,7136.0
2023-05-01T00:03:24.000Z,6468.0
2023-05-01T00:04:24.000Z,6504.0
2023-05-01T00:05:23.000Z,7251.0
2023-05-01T00:06:24.000Z,7585.0
2023-05-01T00:07:23.000Z,8239.0
2023-05-01T00:08:24.000Z,8413.0
2023-05-01T00:09:24.000Z,8230.0
2023-05-01T00:10:23.000Z,8673.0
2023-05-01T00:11:24.000Z,9745.0
2023-05-01T00:12:23.000Z,9941.0
2023-05-01T00:13:23.000Z,10487.0
2023-05-01T00:14:24.000Z,10865.0
2023-05-01T00:15:23.000Z,11829.0
2023-05-01T00:16:24.000Z,12231.0
2023-05-01T00:17:23.000Z,11082.0
2023-05-01T00:18:23.000Z,10341.0
2023-05-01T00:19:24.000Z,10668.0
2023-05-01T00:20:23.000Z,10435.0
2023-05-01T00:21:24.000Z,10046.0
2023-05-01T00:22:24.000Z,9948.0
2023-05-01T00:23:23.000Z,10184.0
2023-05-01T00:24:24.000Z,10124.0
2023-05-01T00:25:23.000Z,10146.0
2023-05-01T00:26:23.000Z,11334.0
2023-05-01T00:27:24.000Z,11221.0
2023-05-01T00:28:23.000Z,11441.0
2023-05-01T00:29:24.000Z,12269.0
2023-05-01T00:30:24.000Z,12181.0
2023-05-01T00:31:23.000Z,10865.0
2023-05-01T00:32:24.000Z,11274.0
2023-05-01T00:33:24.000Z,10198.0
2023-05-01T00:34:23.000Z,8966.0
2023-05-01T00:35:24.000Z,8208.0
2023-05-01T00:36:23.000Z,8078.0
2023-05-01T00:37:23.000Z,8066.0
2023-05-01T00:38:24.000Z,7444.0
2023-05-01T00:39:23.000Z,7470.0
2023-05-01T00:40:24.000Z,7271.0
2023-05-01T00:41:24.000Z,6704.0
2023-05-01T00:42:23.000Z,6744.0
2023-05-01T00:43:24.000Z,6926.0
2023-05-01T00:44:23.000Z,6877.0
2023-05-01T00:45:23.000Z,6653.0
2023-05-01T00:46:24.000Z,6848.0
2023-05-01T00:47:23.000Z,6826.0
2023-05-01T00:48:24.000Z,6317.0
2023-05-01T00:49:23.000Z,6213.0
2023-05-01T00:50:23.000Z,5565.0
2023-05-01T00:51:24.000Z,5483.0
2023-05-01T00:52:23.000Z,5621.0
2023-05-01T00:53:24.000Z,5443.0
2023-05-01T00:54:24.000Z,5605.0
2023-05-01T00:55:23.000Z,5552.0
2023-05-01T00:56:24.000Z,5543.0
2023-05-01T00:57:23.000Z,5596.0
2023-05-01T00:58:23.000Z,5429.0
2023-05-01T00:59:24.000Z,5542.0
2023-05-01T01:00:23.000Z,5689.0
2023-05-01T01:01:24.000Z,5922.0
2023-05-01T01:02:23.000Z,6203.0
2023-05-01T01:03:23.000Z,6446.0
2023-05-01T01:04:24.000Z,6378.0
2023-05-01T01:05:23.000Z,5989.0
2023-05-01T01:06:24.000Z,6102.0
2023-05-01T01:07:24.000Z,6692.0
2023-05-01T01:08:23.000Z,6734.0
2023-05-01T01:09:24.000Z,7245.0
2023-05-01T01:10:23.000Z,7578.0
2023-05-01T01:11:23.000Z,8360.0
2023-05-01T01:12:24.000Z,8471.0
2023-05-01T01:13:23.000Z,9161.0
2023-05-01T01:14:24.000Z,8411.0
2023-05-01T01:15:23.000Z,8199.0
2023-05-01T01:16:23.000Z,8318.0
2023-05-01T01:17:24.000Z,8222.0
2023-05-01T01:18:23.000Z,8719.0
2023-05-01T01:19:24.000Z,8726.0
2023-05-01T01:20:24.000Z,8772.0
2023-05-01T01:21:23.000Z,9186.0
2023-05-01T01:22:24.000Z,9446.0
2023-05-01T01:23:23.000Z,9746.0
2023-05-01T01:24:23.000Z,9533.0
2023-05-01T01:25:24.000Z,10153.0
2023-05-01T01:26:23.000Z,10158.0
2023-05-01T01:27:24.000Z,9702.0
2023-05-01T01:28:23.000Z,9182.0
2023-05-01T01:29:23.000Z,8600.0
2023-05-01T01:30:24.000Z,7963.0
2023-05-01T01:31:23.000Z,7391.0
2023-05-01T01:32:23.000Z,7702.0
2023-05-01T01:33:24.000Z,7210.0
2023-05-01T01:34:23.000Z,7180.0
2023-05-01T01:35:23.000Z,7273.0
2023-05-01T01:36:24.000Z,7132.0
2023-05-01T01:37:23.000Z,7477.0
2023-05-01T01:38:24.000Z,6771.0
2023-05-01T01:39:23.000Z,7191.0
2023-05-01T01:40:23.000Z,7215.0
2023-05-01T01:41:24.000Z,6904.0
2023-05-01T01:42:23.000Z,6777.0
2023-05-01T01:43:24.000Z,6657.0
2023-05-01T01:44:24.000Z,6969.0
2023-05-01T01:45:23.000Z,7355.0
2023-05-01T01:46:24.000Z,7387.0
2023-05-01T01:47:23.000Z,7761.0
2023-05-01T01:48:23.000Z,8153.0
2023-05-01T01:49:24.000Z,7950.0
2023-05-01T01:50:23.000Z,7875.0
2023-05-01T01:51:24.000Z,7951.0
2023-05-01T01:52:23.000Z,7596.0
2023-05-01T01:53:23.000Z,7121.0
2023-05-01T01:54:24.000Z,7323.0
2023-05-01T01:55:23.000Z,7739.0
2023-05-01T01:56:24.000Z,7863.0
2023-05-01T01:57:24.000Z,7713.0
2023-05-01T01:58:23.000Z,8161.0
2023-05-01T01:59:24.000Z,8443.0
2023-05-01T02:00:23.000Z,8372.0
2023-05-01T02:01:23.000Z,8612.0
2023-05-01T02:02:24.000Z,8283.0
2023-05-01T02:03:23.000Z,7652.0
2023-05-01T02:04:24.000Z,7962.0
2023-05-01T02:05:24.000Z,8324.0
2023-05-01T02:06:23.000Z,8274.0
2023-05-01T02:07:24.000Z,8100.0
2023-05-01T02:08:23.000Z,7716.0
2023-05-01T02:09:24.000Z,7753.0
2023-05-01T02:10:24.000Z,8005.0
2023-05-01T02:11:23.000Z,8540.0
2023-05-01T02:12:24.000Z,8633.0
2023-05-01T02:13:23.000Z,8892.0
2023-05-01T02:14:23.000Z,8616.0
2023-05-01T02:15:24.000Z,8713.0
2023-05-01T02:16:23.000Z,8731.0
2023-05-01T02:17:24.000Z,8293.0
2023-05-01T02:18:23.000Z,7604.0
2023-05-01T02:19:23.000Z,6633.0
2023-05-01T02:20:24.000Z,6308.0
2023-05-01T02:21:23.000Z,6200.0
2023-05-01T02:22:24.000Z,6038.0
2023-05-01T02:23:24.000Z,6237.0
2023-05-01T02:24:23.000Z,6481.0
2023-05-01T02:25:24.000Z,6704.0
2023-05-01T02:26:23.000Z,7067.0
2023-05-01T02:27:23.000Z,7175.0
2023-05-01T02:28:24.000Z,7480.0
2023-05-01T02:29:23.000Z,8021.0
2023-05-01T02:30:23.000Z,8216.0
2023-05-01T02:31:24.000Z,8361.0
2023-05-01T02:32:23.000Z,8197.0
2023-05-01T02:33:24.000Z,7606.0
2023-05-01T02:34:24.000Z,7011.0
2023-05-01T02:35:23.000Z,6343.0
2023-05-01T02:36:24.000Z,5861.0
2023-05-01T02:37:23.000Z,5447.0
2023-05-01T02:38:23.000Z,5554.0
2023-05-01T02:39:24.000Z,6075.0
2023-05-01T02:40:23.000Z,6099.0
2023-05-01T02:41:24.000Z,5700.0
2023-05-01T02:42:24.000Z,5161.0
2023-05-01T02:43:23.000Z,4980.0
2023-05-01T02:44:24.000Z,5072.0
2023-05-01T02:45:23.000Z,5257.0
2023-05-01T02:46:23.000Z,4935.0
2023-05-01T02:47:24.000Z,4837.0
2023-05-01T02:48:23.000Z,5019.0
2023-05-01T02:49:24.000Z,4982.0
2023-05-01T02:50:23.000Z,4861.0
2023-05-01T02:51:23.000Z,4653.0
2023-05-01T02:52:24.000Z,4150.0
2023-05-01T02:53:23.000Z,3525.0
2023-05-01T02:54:24.000Z,3731.0
2023-05-01T02:55:24.000Z,3911.0
2023-05-01T02:56:23.000Z,3783.0
2023-05-01T02:57:24.000Z,3712.0
2023-05-01T02:58:23.000Z,3850.0
2023-05-01T02:59:24.000Z,3880.0
2023-05-01T03:00:24.000Z,3789.0
2023-05-01T03:01:23.000Z,3923.0
2023-05-01T03:02:24.000Z,3905.0
2023-05-01T03:03:23.000Z,4090.0
2023-05-01T03:04:23.000Z,4385.0
2023-05-01T03:05:24.000Z,4488.0
2023-05-01T03:06:23.000Z,4631.0
2023-05-01T03:07:24.000Z,4812.0
2023-05-01T03:08:24.000Z,4662.0
2023-05-01T03:09:23.000Z,4467.0
2023-05-01T03:10:24.000Z,4241.0
2023-05-01T03:11:23.000Z,3493.0
2023-05-01T03:12:23.000Z,2889.0
2023-05-01T03:13:24.000Z,2273.0
2023-05-01T03:14:23.000Z,2259.0
2023-05-01T03:15:24.000Z,2377.0
2023-05-01T03:16:23.000Z,2469.0
2023-05-01T03:17:23.000Z,2736.0
2023-05-01T03:18:24.000Z,2539.0
2023-05-01T03:19:23.000Z,2904.0
2023-05-01T03:20:24.000Z,3339.0
2023-05-01T03:21:24.000Z,3491.0
2023-05-01T03:22:23.000Z,3622.0
2023-05-01T03:23:24.000Z,3542.0
2023-05-01T03:24:23.000Z,3721.0
2023-05-01T03:25:23.000Z,3814.0
2023-05-01T03:26:24.000Z,4057.0
2023-05-01T03:27:23.000Z,4476.0
2023-05-01T03:28:24.000Z,4497.0
2023-05-01T03:29:24.000Z,4466.0
2023-05-01T03:30:23.000Z,4487.0
2023-05-01T03:31:24.000Z,4635.0
2023-05-01T03:32:23.000Z,4667.0
2023-05-01T03:33:23.000Z,4835.0
2023-05-01T03:34:24.000Z,5119.0
2023-05-01T03:35:23.000Z,5426.0
2023-05-01T03:36:23.000Z,5423.0
2023-05-01T03:37:24.000Z,5505.0
2023-05-01T03:38:23.000Z,5550.0
2023-05-01T03:39:24.000Z,5498.0
2023-05-01T03:40:23.000Z,5389.0
2023-05-01T03:41:23.000Z,5543.0
2023-05-01T03:42:24.000Z,5422.0
2023-05-01T03:43:23.000Z,5338.0
2023-05-01T03:44:24.000Z,5575.0
2023-05-01T03:45:24.000Z,5470.0
2023-05-01T03:46:23.000Z,5832.0
2023-05-01T03:47:24.000Z,5798.0
2023-05-01T03:48:23.000Z,5869.0
2023-05-01T03:49:23.000Z,6265.0
2023-05-01T03:50:24.000Z,6731.0
2023-05-01T03:51:23.000Z,7215.0
2023-05-01T03:52:24.000Z,7779.0
2023-05-01T03:53:24.000Z,8123.0
2023-05-01T03:54:23.000Z,8232.0
2023-05-01T03:55:24.000Z,8110.0
2023-05-01T03:56:23.000Z,7915.0
2023-05-01T03:57:23.000Z,7666.0
2023-05-01T03:58:24.000Z,8007.0
2023-05-01T03:59:23.000Z,7921.0
2023-05-01T04:00:24.000Z,8233.0
2023-05-01T04:01:23.000Z,8238.0
2023-05-01T04:02:23.000Z,8554.0
2023-05-01T04:03:24.000Z,8661.0
2023-05-01T04:04:23.000Z,8474.0
2023-05-01T04:05:24.000Z,8183.0
2023-05-01T04:06:24.000Z,8556.0
2023-05-01T04:07:23.000Z,9020.0
2023-05-01T04:08:24.000Z,9491.0
2023-05-01T04:09:23.000Z,9792.0
2023-05-01T04:10:23.000Z,9592.0
2023-05-01T04:11:24.000Z,9737.0
2023-05-01T04:12:23.000Z,9530.0
2023-05-01T04:13:24.000Z,8488.0
2023-05-01T04:14:23.000Z,7781.0
2023-05-01T04:15:23.000Z,7113.0
2023-05-01T04:16:24.000Z,6284.0
2023-05-01T04:17:23.000Z,5406.0
2023-05-01T04:18:24.000Z,5199.0
2023-05-01T04:19:24.000Z,4176.0
2023-05-01T04:20:23.000Z,3914.0
2023-05-01T04:21:24.000Z,4362.0
2023-05-01T04:22:23.000Z,4604.0
2023-05-01T04:23:23.000Z,5047.0
2023-05-01T04:24:24.000Z,5195.0
2023-05-01T04:25:23.000Z,5308.0
2023-05-01T04:26:24.000Z,5426.0
2023-05-01T04:27:23.000Z,5555.0
2023-05-01T04:28:23.000Z,5900.0
2023-05-01T04:29:24.000Z,6479.0
2023-05-01T04:30:23.000Z,6932.0
2023-05-01T04:31:23.000Z,7911.0
2023-05-01T04:32:24.000Z,9248.0
2023-05-01T04:33:23.000Z,9551.0
2023-05-01T04:34:24.000Z,9418.0
2023-05-01T04:35:24.000Z,10886.0
2023-05-01T04:36:23.000Z,12504.0
2023-05-01T04:37:24.000Z,11716.0
2023-05-01T04:38:23.000Z,10522.0
2023-05-01T04:39:23.000Z,9389.0
2023-05-01T04:40:24.000Z,9645.0
2023-05-01T04:41:23.000Z,10981.0
2023-05-01T04:42:23.000Z,11292.0
2023-05-01T04:43:24.000Z,12108.0
2023-05-01T04:44:23.000Z,13575.0
2023-05-01T04:45:24.000Z,16000.0
2023-05-01T04:46:23.000Z,16000.0
2023-05-01T04:47:23.000Z,16000.0
2023-05-01T04:48:24.000Z,16000.0
2023-05-01T04:49:23.000Z,16000.0
2023-05-01T04:50:24.000Z,16000.0
2023-05-01T04:51:24.000Z,16000.0
2023-05-01T04:52:23.000Z,16000.0
2023-05-01T04:53:24.000Z,16000.0
2023-05-01T04:54:23.000Z,16000.0
2023-05-01T04:55:24.000Z,16000.0
2023-05-01T04:56:24.000Z,16000.0
2023-05-01T04:57:23.000Z,16000.0
2023-05-01T04:58:24.000Z,16000.0
2023-05-01T04:59:23.000Z,16000.0
2023-05-01T05:00:23.000Z,16000.0
2023-05-01T05:01:24.000Z,16000.0
2023-05-01T05:02:23.000Z,16000.0
2023-05-01T05:03:24.000Z,16000.0
2023-05-01T05:04:24.000Z,16000.0
2023-05-01T05:05:23.000Z,16000.0
2023-05-01T05:06:24.000Z,16000.0
2023-05-01T05:07:23.000Z,14152.0
2023-05-01T05:08:23.000Z,14277.0
2023-05-01T05:09:24.000Z,14286.0
2023-05-01T05:10:23.000Z,13975.0
2023-05-01T05:11:24.000Z,13714.0
2023-05-01T05:12:23.000Z,14695.0
2023-05-01T05:13:23.000Z,15025.0
2023-05-01T05:14:24.000Z,16000.0
2023-05-01T05:15:23.000Z,16000.0
2023-05-01T05:16:24.000Z,16000.0
2023-05-01T05:17:24.000Z,16000.0
2023-05-01T05:18:23.000Z,16000.0
2023-05-01T05:19:24.000Z,16000.0
2023-05-01T05:20:23.000Z,16000.0
2023-05-01T05:21:23.000Z,16000.0
2023-05-01T05:22:24.000Z,16000.0
2023-05-01T05:23:23.000Z,16000.0
2023-05-01T05:24:24.000Z,16000.0
2023-05-01T05:25:23.000Z,16000.0
2023-05-01T05:26:23.000Z,16000.0
2023-05-01T05:27:24.000Z,16000.0
2023-05-01T05:28:23.000Z,16000.0
2023-05-01T05:29:23.000Z,16000.0
2023-05-01T05:30:24.000Z,16000.0
2023-05-01T05:31:23.000Z,16000.0
2023-05-01T05:32:24.000Z,16000.0
2023-05-01T05:33:24.000Z,16000.0
2023-05-01T05:34:23.000Z,16000.0
2023-05-01T05:35:24.000Z,16000.0
2023-05-01T05:36:23.000Z,16000.0
2023-05-01T05:37:23.000Z,16000.0
2023-05-01T05:38:24.000Z,16000.0
2023-05-01T05:39:23.000Z,16000.0
2023-05-01T05:40:24.000Z,16000.0
2023-05-01T05:41:24.000Z,16000.0
2023-05-01T05:42:23.000Z,16000.0
2023-05-01T05:43:24.000Z,16000.0
2023-05-01T05:44:23.000Z,16000.0
2023-05-01T05:45:23.000Z,16000.0
2023-05-01T05:46:24.000Z,16000.0
2023-05-01T05:47:23.000Z,16000.0
2023-05-01T05:48:24.000Z,16000.0
2023-05-01T05:49:23.000Z,16000.0
2023-05-01T05:50:23.000Z,16000.0
2023-05-01T05:51:24.000Z,16000.0
2023-05-01T05:52:23.000Z,16000.0
2023-05-01T05:53:24.000Z,16000.0
2023-05-01T05:54:24.000Z,16000.0
2023-05-01T05:55:23.000Z,16000.0
2023-05-01T05:56:24.000Z,16000.0
2023-05-01T05:57:23.000Z,16000.0
2023-05-01T05:58:23.000Z,16000.0
2023-05-01T05:59:24.000Z,16000.0
2023-05-01T06:00:23.000Z,16000.0
2023-05-01T06:01:24.000Z,16000.0
2023-05-01T06:02:23.000Z,16000.0
2023-05-01T06:03:23.000Z,16000.0
2023-05-01T06:04:24.000Z,16000.0
2023-05-01T06:05:23.000Z,16000.0
2023-05-01T06:06:24.000Z,16000.0
2023-05-01T06:07:24.000Z,16000.0
2023-05-01T06:08:23.000Z,16000.0
2023-05-01T06:09:24.000Z,16000.0
2023-05-01T06:10:23.000Z,16000.0
2023-05-01T06:11:23.000Z,16000.0
2023-05-01T06:12:24.000Z,16000.0
2023-05-01T06:13:23.000Z,16000.0
2023-05-01T06:14:24.000Z,16000.0
2023-05-01T06:15:23.000Z,16000.0
2023-05-01T06:16:23.000Z,16000.0
2023-05-01T06:17:24.000Z,16000.0
2023-05-01T06:18:23.000Z,16000.0
2023-05-01T06:19:24.000Z,16000.0
2023-05-01T06:20:24.000Z,16000.0
2023-05-01T06:21:23.000Z,16000.0
2023-05-01T06:22:24.000Z,16000.0
2023-05-01T06:23:23.000Z,16000.0
2023-05-01T06:24:23.000Z,16000.0
2023-05-01T06:25:24.000Z,16000.0
2023-05-01T06:26:23.000Z,16000.0
2023-05-01T06:27:24.000Z,16000.0
2023-05-01T06:28:23.000Z,16000.0
2023-05-01T06:29:23.000Z,16000.0
2023-05-01T06:30:24.000Z,16000.0
2023-05-01T06:31:23.000Z,16000.0
2023-05-01T06:32:24.000Z,16000.0
2023-05-01T06:33:24.000Z,16000.0
2023-05-01T06:34:23.000Z,16000.0
2023-05-01T06:35:24.000Z,16000.0
2023-05-01T06:36:23.000Z,16000.0
2023-05-01T06:37:23.000Z,16000.0
2023-05-01T06:38:24.000Z,16000.0
2023-05-01T06:39:23.000Z,16000.0
2023-05-01T06:40:24.000Z,16000.0
2023-05-01T06:41:24.000Z,16000.0
2023-05-01T06:42:23.000Z,16000.0
2023-05-01T06:43:24.000Z,16000.0
2023-05-01T06:44:23.000Z,16000.0
2023-05-01T06:45:23.000Z,16000.0
2023-05-01T06:46:24.000Z,16000.0
2023-05-01T06:47:23.000Z,16000.0
2023-05-01T06:48:24.000Z,16000.0
2023-05-01T06:49:23.000Z,16000.0
2023-05-01T06:50:23.000Z,16000.0
2023-05-01T06:51:24.000Z,16000.0
2023-05-01T06:52:23.000Z,16000.0
2023-05-01T06:53:24.000Z,16000.0
2023-05-01T06:54:23.000Z,16000.0
2023-05-01T06:55:23.000Z,16000.0
2023-05-01T06:56:24.000Z,16000.0
2023-05-01T06:57:23.000Z,16000.0
2023-05-01T06:58:23.000Z,16000.0
2023-05-01T06:59:24.000Z,16000.0
2023-05-01T07:00:23.000Z,16000.0
2023-05-01T07:01:24.000Z,16000.0
2023-05-01T07:02:23.000Z,16000.0
2023-05-01T07:03:23.000Z,16000.0
2023-05-01T07:04:24.000Z,16000.0
2023-05-01T07:05:23.000Z,16000.0
2023-05-01T07:06:24.000Z,16000.0
2023-05-01T07:07:24.000Z,16000.0
2023-05-01T07:08:23.000Z,16000.0
2023-05-01T07:09:24.000Z,16000.0
2023-05-01T07:10:23.000Z,16000.0
2023-05-01T07:11:23.000Z,16000.0
2023-05-01T07:12:24.000Z,16000.0
2023-05-01T07:13:23.000Z,16000.0
2023-05-01T07:14:24.000Z,16000.0
2023-05-01T07:15:23.000Z,16000.0
2023-05-01T07:16:23.000Z,16000.0
2023-05-01T07:17:24.000Z,16000.0
2023-05-01T07:18:23.000Z,16000.0
2023-05-01T07:19:24.000Z,16000.0
2023-05-01T07:20:23.000Z,16000.0
2023-05-01T07:21:23.000Z,16000.0
2023-05-01T07:22:24.000Z,16000.0
2023-05-01T07:23:23.000Z,16000.0
2023-05-01T07:24:23.000Z,16000.0
2023-05-01T07:25:24.000Z,16000.0
2023-05-01T07:26:23.000Z,16000.0
2023-05-01T07:27:24.000Z,16000.0
2023-05-01T07:28:23.000Z,16000.0
2023-05-01T07:29:23.000Z,16000.0
2023-05-01T07:30:24.000Z,16000.0
2023-05-01T07:31:23.000Z,16000.0
2023-05-01T07:32:24.000Z,16000.0
2023-05-01T07:33:24.000Z,16000.0
2023-05-01T07:34:23.000Z,16000.0
2023-05-01T07:35:24.000Z,16000.0
2023-05-01T07:36:23.000Z,16000.0
2023-05-01T07:37:23.000Z,16000.0
2023-05-01T07:38:24.000Z,16000.0
2023-05-01T07:39:23.000Z,16000.0
2023-05-01T07:40:24.000Z,16000.0
2023-05-01T07:41:23.000Z,16000.0
2023-05-01T07:42:23.000Z,16000.0
2023-05-01T07:43:24.000Z,16000.0
2023-05-01T07:44:23.000Z,16000.0
2023-05-01T07:45:23.000Z,16000.0
2023-05-01T07:46:24.000Z,16000.0
2023-05-01T07:47:23.000Z,16000.0
2023-05-01T07:48:24.000Z,16000.0
2023-05-01T07:49:23.000Z,16000.0
2023-05-01T07:50:23.000Z,16000.0
2023-05-01T07:51:24.000Z,16000.0
2023-05-01T07:52:23.000Z,16000.0
2023-05-01T07:53:24.000Z,16000.0
2023-05-01T07:54:23.000Z,16000.0
2023-05-01T07:55:23.000Z,16000.0
2023-05-01T07:56:24.000Z,16000.0
2023-05-01T07:57:23.000Z,16000.0
2023-05-01T07:58:24.000Z,16000.0
2023-05-01T07:59:24.000Z,16000.0
2023-05-01T08:00:23.000Z,16000.0
2023-05-01T08:01:24.000Z,16000.0
2023-05-01T08:02:23.000Z,16000.0
2023-05-01T08:03:23.000Z,16000.0
2023-05-01T08:04:24.000Z,16000.0
2023-05-01T08:05:23.000Z,16000.0
2023-05-01T08:06:24.000Z,16000.0
2023-05-01T08:07:23.000Z,16000.0
2023-05-01T08:08:23.000Z,16000.0
2023-05-01T08:09:24.000Z,16000.0
2023-05-01T08:10:23.000Z,16000.0
2023-05-01T08:11:23.000Z,16000.0
2023-05-01T08:12:24.000Z,16000.0
2023-05-01T08:13:23.000Z,16000.0
2023-05-01T08:14:24.000Z,16000.0
2023-05-01T08:15:23.000Z,16000.0
2023-05-01T08:16:23.000Z,16000.0
2023-05-01T08:17:24.000Z,16000.0
2023-05-01T08:18:23.000Z,16000.0
2023-05-01T08:19:24.000Z,16000.0
2023-05-01T08:20:23.000Z,16000.0
2023-05-01T08:21:23.000Z,16000.0
2023-05-01T08:22:24.000Z,16000.0
2023-05-01T08:23:23.000Z,16000.0
2023-05-01T08:24:24.000Z,16000.0
2023-05-01T08:25:24.000Z,16000.0
2023-05-01T08:26:23.000Z,16000.0
2023-05-01T08:27:24.000Z,16000.0
2023-05-01T08:28:23.000Z,16000.0
2023-05-01T08:29:23.000Z,16000.0
2023-05-01T08:30:24.000Z,16000.0
2023-05-01T08:31:23.000Z,16000.0
2023-05-01T08:32:23.000Z,16000.0
2023-05-01T08:33:24.000Z,16000.0
2023-05-01T08:34:23.000Z,16000.0
2023-05-01T08:35:24.000Z,16000.0
2023-05-01T08:36:23.000Z,16000.0
2023-05-01T08:37:23.000Z,16000.0
2023-05-01T08:38:24.000Z,16000.0
2023-05-01T08:39:23.000Z,16000.0
2023-05-01T08:40:24.000Z,16000.0
2023-05-01T08:41:23.000Z,16000.0
2023-05-01T08:42:23.000Z,16000.0
2023-05-01T08:43:24.000Z,16000.0
2023-05-01T08:44:23.000Z,16000.0
2023-05-01T08:45:24.000Z,16000.0
2023-05-01T08:46:24.000Z,16000.0
2023-05-01T08:47:23.000Z,16000.0
2023-05-01T08:48:24.000Z,16000.0
2023-05-01T08:49:23.000Z,16000.0
2023-05-01T08:50:23.000Z,16000.0
2023-05-01T08:51:24.000Z,16000.0
2023-05-01T08:52:23.000Z,16000.0
2023-05-01T08:53:24.000Z,16000.0
2023-05-01T08:54:23.000Z,16000.0
2023-05-01T08:55:23.000Z,16000.0
2023-05-01T08:56:24.000Z,16000.0
2023-05-01T08:57:23.000Z,16000.0
2023-05-01T08:58:23.000Z,16000.0
2023-05-01T08:59:24.000Z,16000.0
2023-05-01T09:00:23.000Z,16000.0
2023-05-01T09:01:24.000Z,16000.0
2023-05-01T09:02:23.000Z,16000.0
2023-05-01T09:03:23.000Z,16000.0
2023-05-01T09:04:24.000Z,16000.0
2023-05-01T09:05:23.000Z,16000.0
2023-05-01T09:06:24.000Z,16000.0
2023-05-01T09:07:23.000Z,16000.0
2023-05-01T09:08:23.000Z,16000.0
2023-05-01T09:09:24.000Z,16000.0
2023-05-01T09:10:23.000Z,16000.0
2023-05-01T09:11:23.000Z,16000.0
2023-05-01T09:12:24.000Z,16000.0
2023-05-01T09:13:23.000Z,16000.0
2023-05-01T09:14:24.000Z,16000.0
2023-05-01T09:15:23.000Z,16000.0
2023-05-01T09:16:23.000Z,16000.0
2023-05-01T09:17:24.000Z,16000.0
2023-05-01T09:18:23.000Z,16000.0
2023-05-01T09:19:24.000Z,16000.0
2023-05-01T09:20:23.000Z,16000.0
2023-05-01T09:21:23.000Z,16000.0
2023-05-01T09:22:24.000Z,16000.0
2023-05-01T09:23:23.000Z,16000.0
2023-05-01T09:24:23.000Z,16000.0
2023-05-01T09:25:24.000Z,16000.0
2023-05-01T09:26:23.000Z,16000.0
2023-05-01T09:27:24.000Z,16000.0
2023-05-01T09:28:23.000Z,16000.0
2023-05-01T09:29:23.000Z,16000.0
2023-05-01T09:30:24.000Z,16000.0
2023-05-01T09:31:23.000Z,16000.0
2023-05-01T09:32:23.000Z,16000.0
2023-05-01T09:33:24.000Z,16000.0
2023-05-01T09:34:23.000Z,16000.0
2023-05-01T09:35:24.000Z,16000.0
2023-05-01T09:36:23.000Z,16000.0
2023-05-01T09:37:23.000Z,16000.0
2023-05-01T09:38:24.000Z,16000.0
2023-05-01T09:39:23.000Z,16000.0
2023-05-01T09:40:24.000Z,16000.0
2023-05-01T09:41:23.000Z,16000.0
2023-05-01T09:42:23.000Z,16000.0
2023-05-01T09:43:24.000Z,16000.0
2023-05-01T09:44:23.000Z,16000.0
2023-05-01T09:45:23.000Z,16000.0
2023-05-01T09:46:24.000Z,16000.0
2023-05-01T09:47:23.000Z,16000.0
2023-05-01T09:48:24.000Z,16000.0
2023-05-01T09:49:23.000Z,16000.0
2023-05-01T09:50:23.000Z,16000.0
2023-05-01T09:51:24.000Z,16000.0
2023-05-01T09:52:23.000Z,16000.0
2023-05-01T09:53:24.000Z,16000.0
2023-05-01T09:54:23.000Z,16000.0
2023-05-01T09:55:23.000Z,16000.0
2023-05-01T09:56:24.000Z,16000.0
2023-05-01T09:57:23.000Z,16000.0
2023-05-01T09:58:23.000Z,16000.0
2023-05-01T09:59:24.000Z,16000.0
2023-05-01T10:00:23.000Z,16000.0
2023-05-01T10:01:24.000Z,16000.0
2023-05-01T10:02:23.000Z,16000.0
2023-05-01T10:03:23.000Z,16000.0
2023-05-01T10:04:24.000Z,16000.0
2023-05-01T10:05:23.000Z,16000.0
2023-05-01T10:06:24.000Z,16000.0
2023-05-01T10:07:23.000Z,16000.0
2023-05-01T10:08:23.000Z,16000.0
2023-05-01T10:09:24.000Z,16000.0
2023-05-01T10:10:23.000Z,16000.0
2023-05-01T10:11:23.000Z,16000.0
2023-05-01T10:12:24.000Z,16000.0
2023-05-01T10:13:23.000Z,16000.0
2023-05-01T10:14:24.000Z,16000.0
2023-05-01T10:15:23.000Z,16000.0
2023-05-01T10:16:23.000Z,16000.0
2023-05-01T10:17:24.000Z,16000.0
2023-05-01T10:18:23.000Z,16000.0
2023-05-01T10:19:24.000Z,16000.0
2023-05-01T10:20:23.000Z,16000.0
2023-05-01T10:21:23.000Z,16000.0
2023-05-01T10:22:24.000Z,16000.0
2023-05-01T10:23:23.000Z,16000.0
2023-05-01T10:24:23.000Z,16000.0
2023-05-01T10:25:24.000Z,16000.0
2023-05-01T10:26:23.000Z,16000.0
2023-05-01T10:27:24.000Z,16000.0
2023-05-01T10:28:23.000Z,16000.0
2023-05-01T10:29:23.000Z,16000.0
2023-05-01T10:30:24.000Z,16000.0
2023-05-01T10:31:23.000Z,16000.0
2023-05-01T10:32:23.000Z,16000.0
2023-05-01T10:33:24.000Z,16000.0
2023-05-01T10:34:23.000Z,16000.0
2023-05-01T10:35:23.000Z,16000.0
2023-05-01T10:36:24.000Z,16000.0
2023-05-01T10:37:23.000Z,16000.0
2023-05-01T10:38:24.000Z,16000.0
2023-05-01T10:39:23.000Z,16000.0
2023-05-01T10:40:23.000Z,16000.0
2023-05-01T10:41:24.000Z,16000.0
2023-05-01T10:42:23.000Z,16000.0
2023-05-01T10:43:24.000Z,16000.0
2023-05-01T10:44:23.000Z,16000.0
2023-05-01T10:45:23.000Z,16000.0
2023-05-01T10:46:24.000Z,16000.0
2023-05-01T10:47:23.000Z,16000.0
2023-05-01T10:48:23.000Z,16000.0
2023-05-01T10:49:24.000Z,16000.0
2023-05-01T10:50:23.000Z,16000.0
2023-05-01T10:51:24.000Z,16000.0
2023-05-01T10:52:23.000Z,16000.0
2023-05-01T10:53:23.000Z,16000.0
2023-05-01T10:54:24.000Z,16000.0
2023-05-01T10:55:23.000Z,16000.0
2023-05-01T10:56:24.000Z,16000.0
2023-05-01T10:57:23.000Z,16000.0
2023-05-01T10:58:23.000Z,16000.0
2023-05-01T10:59:24.000Z,16000.0
2023-05-01T11:00:23.000Z,16000.0
2023-05-01T11:01:23.000Z,16000.0
2023-05-01T11:02:24.000Z,16000.0
2023-05-01T11:03:23.000Z,16000.0
2023-05-01T11:04:24.000Z,16000.0
2023-05-01T11:05:23.000Z,16000.0
2023-05-01T11:06:23.000Z,16000.0
2023-05-01T11:07:24.000Z,16000.0
2023-05-01T11:08:23.000Z,16000.0
2023-05-01T11:09:24.000Z,16000.0
2023-05-01T11:10:23.000Z,16000.0
2023-05-01T11:11:23.000Z,16000.0
2023-05-01T11:12:24.000Z,16000.0
2023-05-01T11:13:23.000Z,16000.0
2023-05-01T11:14:23.000Z,16000.0
2023-05-01T11:15:24.000Z,16000.0
2023-05-01T11:16:23.000Z,16000.0
2023-05-01T11:17:24.000Z,16000.0
2023-05-01T11:18:23.000Z,16000.0
2023-05-01T11:19:23.000Z,16000.0
2023-05-01T11:20:24.000Z,16000.0
2023-05-01T11:21:23.000Z,16000.0
2023-05-01T11:22:24.000Z,16000.0
2023-05-01T11:23:23.000Z,16000.0
2023-05-01T11:24:23.000Z,16000.0
2023-05-01T11:25:24.000Z,16000.0
2023-05-01T11:26:23.000Z,16000.0
2023-05-01T11:27:23.000Z,16000.0
2023-05-01T11:28:24.000Z,16000.0
2023-05-01T11:29:23.000Z,16000.0
2023-05-01T11:30:23.000Z,16000.0
2023-05-01T11:31:24.000Z,16000.0
2023-05-01T11:32:23.000Z,16000.0
2023-05-01T11:33:24.000Z,16000.0
2023-05-01T11:34:23.000Z,16000.0
2023-05-01T11:35:23.000Z,16000.0
2023-05-01T11:36:24.000Z,16000.0
2023-05-01T11:37:23.000Z,16000.0
2023-05-01T11:38:23.000Z,16000.0
2023-05-01T11:39:24.000Z,16000.0
2023-05-01T11:40:23.000Z,16000.0
2023-05-01T11:41:24.000Z,16000.0
2023-05-01T11:42:23.000Z,16000.0
2023-05-01T11:43:23.000Z,16000.0
2023-05-01T11:44:24.000Z,16000.0
2023-05-01T11:45:23.000Z,16000.0
2023-05-01T11:46:24.000Z,16000.0
2023-05-01T11:47:24.000Z,16000.0
2023-05-01T11:48:23.000Z,16000.0
2023-05-01T11:49:24.000Z,16000.0
2023-05-01T11:50:23.000Z,16000.0
2023-05-01T11:51:23.000Z,16000.0
2023-05-01T11:52:24.000Z,16000.0
2023-05-01T11:53:23.000Z,16000.0
2023-05-01T11:54:24.000Z,16000.0
2023-05-01T11:55:23.000Z,16000.0
2023-05-01T11:56:23.000Z,16000.0
2023-05-01T11:58:23.000Z,16000.0
2023-05-01T11:59:24.000Z,16000.0
2023-05-01T12:00:23.000Z,16000.0
2023-05-01T12:01:23.000Z,16000.0
2023-05-01T12:02:24.000Z,16000.0
2023-05-01T12:03:23.000Z,16000.0
2023-05-01T12:04:23.000Z,16000.0
2023-05-01T12:05:24.000Z,16000.0
2023-05-01T12:06:23.000Z,16000.0
2023-05-01T12:07:24.000Z,16000.0
2023-05-01T12:08:23.000Z,16000.0
2023-05-01T12:09:23.000Z,16000.0
2023-05-01T12:10:24.000Z,16000.0
2023-05-01T12:11:23.000Z,16000.0
2023-05-01T12:12:24.000Z,16000.0
2023-05-01T12:13:24.000Z,16000.0
2023-05-01T12:14:23.000Z,16000.0